Time;durP1;ratioP1;P1;durP2;ratioP2;P2;SDS_P1;SDS_P2;PMS_P1;PMS_P2;Temp;Humidity;BMP_temperature;BMP_pressure;BME280_temperature;BME280_humidity;BME280_pressure;Samples;Min_cycle;Max_cycle;Signal;HPM_P1;HPM_P2
2021/10/18 00:01:50;;;;;;;10.83;8.03;;;10.90;99.90;;;;;;5050517;28;20210;-71
2021/10/18 00:04:16;;;;;;;8.83;8.03;;;10.90;99.90;;;;;;5051723;28;20550;-71
2021/10/18 00:06:41;;;;;;;8.27;7.50;;;10.80;99.90;;;;;;5050424;28;20195;-71
2021/10/18 00:09:07;;;;;;;8.40;7.60;;;10.90;99.90;;;;;;5051807;28;20666;-71
2021/10/18 00:11:33;;;;;;;10.20;7.93;;;10.90;99.90;;;;;;5051440;28;20190;-71
2021/10/18 00:13:59;;;;;;;9.67;8.67;;;10.90;99.90;;;;;;5050862;28;20180;-71
2021/10/18 00:16:25;;;;;;;8.60;7.90;;;10.90;99.90;;;;;;5051480;28;20178;-71
2021/10/18 00:18:50;;;;;;;8.63;7.80;;;10.90;99.90;;;;;;5050599;28;20414;-70
2021/10/18 00:21:16;;;;;;;8.30;7.60;;;10.90;99.90;;;;;;5050047;28;20181;-71
2021/10/18 00:23:42;;;;;;;8.73;7.93;;;11.00;99.90;;;;;;5054296;28;20180;-71
2021/10/18 00:26:07;;;;;;;7.93;7.33;;;11.00;99.90;;;;;;5054937;28;20264;-70
2021/10/18 00:28:33;;;;;;;9.53;8.07;;;11.00;99.90;;;;;;5055033;28;20179;-71
2021/10/18 00:30:59;;;;;;;8.17;7.40;;;10.90;99.90;;;;;;5052743;28;20182;-70
2021/10/18 00:33:25;;;;;;;9.67;8.60;;;10.90;99.90;;;;;;5055024;28;20201;-70
2021/10/18 00:35:50;;;;;;;8.63;7.83;;;10.90;99.90;;;;;;5054018;28;20176;-71
2021/10/18 00:38:16;;;;;;;8.87;7.97;;;10.90;99.90;;;;;;5054580;28;20188;-70
2021/10/18 00:40:42;;;;;;;8.80;8.03;;;11.00;99.90;;;;;;5052497;28;20281;-71
2021/10/18 00:43:08;;;;;;;9.40;8.40;;;10.90;99.90;;;;;;5054713;28;20536;-70
2021/10/18 00:45:34;;;;;;;9.77;8.73;;;10.80;99.90;;;;;;5054379;28;20722;-70
2021/10/18 00:48:00;;;;;;;8.87;7.77;;;10.80;99.90;;;;;;5054187;28;20208;-70
2021/10/18 00:50:27;;;;;;;8.50;7.80;;;10.80;99.90;;;;;;5054257;28;20413;-70
2021/10/18 00:52:53;;;;;;;9.60;8.70;;;10.80;99.90;;;;;;5053770;28;20752;-70
2021/10/18 00:55:19;;;;;;;9.27;8.30;;;10.80;99.90;;;;;;5054455;28;20409;-70
2021/10/18 00:57:48;;;;;;;9.23;8.27;;;10.80;99.90;;;;;;5053638;28;20409;-70
2021/10/18 01:00:14;;;;;;;8.50;7.60;;;10.70;99.90;;;;;;5054584;28;20411;-70
2021/10/18 01:02:40;;;;;;;8.33;7.53;;;10.70;99.90;;;;;;5052082;28;20433;-72
2021/10/18 01:05:07;;;;;;;8.47;7.70;;;10.70;99.90;;;;;;5054285;28;20921;-71
2021/10/18 01:07:34;;;;;;;8.07;7.37;;;10.70;99.90;;;;;;5054232;28;20450;-70
2021/10/18 01:10:00;;;;;;;8.47;7.53;;;10.70;99.90;;;;;;5053103;28;21312;-70
2021/10/18 01:12:27;;;;;;;8.87;8.10;;;10.70;99.90;;;;;;5054167;28;20435;-70
2021/10/18 01:14:53;;;;;;;9.60;8.43;;;10.70;99.90;;;;;;5051904;28;20422;-70
2021/10/18 01:17:19;;;;;;;9.17;8.20;;;10.70;99.90;;;;;;5054112;28;20529;-70
2021/10/18 01:19:45;;;;;;;8.90;8.10;;;10.70;99.90;;;;;;5053265;28;20401;-71
2021/10/18 01:22:11;;;;;;;8.80;8.00;;;10.70;99.90;;;;;;5053778;28;20186;-71
2021/10/18 01:24:37;;;;;;;9.97;8.50;;;10.70;99.90;;;;;;5054030;28;20188;-70
2021/10/18 01:27:04;;;;;;;9.70;8.20;;;10.70;99.90;;;;;;5035540;28;20218;-71
2021/10/18 01:29:32;;;;;;;9.27;8.40;;;10.70;99.90;;;;;;5053873;28;20405;-71
2021/10/18 01:31:58;;;;;;;9.63;8.70;;;10.70;99.90;;;;;;5052935;28;20410;-71
2021/10/18 01:34:25;;;;;;;8.90;8.10;;;10.70;99.90;;;;;;5052236;28;20506;-71
2021/10/18 01:36:51;;;;;;;8.73;8.03;;;10.70;99.90;;;;;;5052862;28;20417;-71
2021/10/18 01:39:17;;;;;;;12.10;8.90;;;10.60;99.90;;;;;;5052557;28;20411;-71
2021/10/18 01:41:43;;;;;;;8.30;7.60;;;10.60;99.90;;;;;;5052321;28;20200;-71
2021/10/18 01:44:08;;;;;;;9.90;8.87;;;10.60;99.90;;;;;;5052095;28;20224;-70
2021/10/18 01:46:34;;;;;;;10.43;9.10;;;10.60;99.90;;;;;;5053235;28;20649;-71
2021/10/18 01:49:00;;;;;;;9.67;8.87;;;10.60;99.90;;;;;;5052667;28;20174;-70
2021/10/18 01:51:25;;;;;;;9.80;8.80;;;10.60;99.90;;;;;;5052254;28;20631;-71
2021/10/18 01:53:51;;;;;;;9.40;8.50;;;10.60;99.90;;;;;;5052585;28;20177;-70
2021/10/18 01:56:17;;;;;;;9.50;8.67;;;10.50;99.90;;;;;;5053406;28;20284;-71
2021/10/18 01:58:42;;;;;;;10.17;9.17;;;10.60;99.90;;;;;;5052526;28;20166;-71
2021/10/18 02:01:08;;;;;;;8.90;8.20;;;10.50;99.90;;;;;;5052891;28;20653;-71
2021/10/18 02:03:34;;;;;;;9.80;8.90;;;10.50;99.90;;;;;;5053265;28;20201;-70
2021/10/18 02:06:00;;;;;;;9.47;8.67;;;10.50;99.90;;;;;;5051129;28;20687;-70
2021/10/18 02:08:25;;;;;;;8.70;7.93;;;10.60;99.90;;;;;;5053055;28;20210;-70
2021/10/18 02:10:51;;;;;;;9.63;8.40;;;10.50;99.90;;;;;;5052213;28;20180;-70
2021/10/18 02:13:17;;;;;;;10.60;9.50;;;10.50;99.90;;;;;;5051874;28;20213;-70
2021/10/18 02:15:42;;;;;;;10.83;9.47;;;10.50;99.90;;;;;;5052722;28;20233;-71
2021/10/18 02:18:08;;;;;;;9.00;8.10;;;10.60;99.90;;;;;;5052995;28;20234;-70
2021/10/18 02:20:34;;;;;;;9.23;8.00;;;10.50;99.90;;;;;;5052953;28;20183;-70
2021/10/18 02:23:00;;;;;;;9.13;8.43;;;10.60;99.90;;;;;;5050622;28;20184;-70
2021/10/18 02:25:25;;;;;;;9.33;8.33;;;10.60;99.90;;;;;;5053041;28;20185;-70
2021/10/18 02:27:51;;;;;;;9.47;8.57;;;10.60;99.90;;;;;;5050687;28;20196;-70
2021/10/18 02:30:17;;;;;;;9.50;8.60;;;10.50;99.90;;;;;;5053018;28;20320;-71
2021/10/18 02:32:43;;;;;;;8.40;7.60;;;10.50;99.90;;;;;;5052401;28;20176;-71
2021/10/18 02:35:10;;;;;;;8.47;7.57;;;10.50;99.90;;;;;;5052307;28;20422;-71
2021/10/18 02:37:36;;;;;;;8.67;7.87;;;10.50;99.90;;;;;;5052619;28;20630;-70
2021/10/18 02:40:02;;;;;;;7.63;7.03;;;10.50;99.90;;;;;;5051444;28;20555;-71
2021/10/18 02:42:28;;;;;;;8.40;7.63;;;10.50;99.90;;;;;;5052168;28;20505;-70
2021/10/18 02:44:54;;;;;;;8.77;8.07;;;10.50;99.90;;;;;;5050412;28;20529;-71
2021/10/18 02:47:19;;;;;;;8.60;7.80;;;10.50;99.90;;;;;;5052334;28;20204;-70
2021/10/18 02:49:45;;;;;;;8.30;7.60;;;10.40;99.90;;;;;;5050547;28;20384;-72
2021/10/18 02:52:11;;;;;;;8.77;7.97;;;10.40;99.80;;;;;;5052457;28;20174;-71
2021/10/18 02:54:37;;;;;;;8.63;7.80;;;10.40;99.70;;;;;;5052322;28;20307;-71
2021/10/18 02:57:03;;;;;;;8.70;8.00;;;10.30;99.50;;;;;;5051278;28;20241;-71
2021/10/18 02:59:29;;;;;;;8.50;7.70;;;10.30;99.50;;;;;;5052216;28;20174;-70
2021/10/18 03:01:54;;;;;;;8.90;8.03;;;10.30;99.70;;;;;;5051195;28;20830;-71
2021/10/18 03:04:20;;;;;;;9.90;7.60;;;10.30;99.90;;;;;;5052165;28;20182;-70
2021/10/18 03:06:46;;;;;;;9.30;6.67;;;10.20;99.60;;;;;;5051577;28;20264;-72
2021/10/18 03:09:12;;;;;;;8.70;7.90;;;10.20;99.60;;;;;;5051755;28;20180;-71
2021/10/18 03:11:38;;;;;;;8.77;7.97;;;10.20;99.70;;;;;;5052139;28;20182;-71
2021/10/18 03:14:04;;;;;;;8.33;7.53;;;10.20;99.90;;;;;;5051355;28;20495;-70
2021/10/18 03:16:31;;;;;;;8.43;7.63;;;10.20;99.90;;;;;;5051926;28;20186;-71
2021/10/18 03:18:57;;;;;;;7.83;7.23;;;10.20;99.90;;;;;;5051319;28;20415;-71
2021/10/18 03:21:23;;;;;;;8.13;7.33;;;10.20;99.90;;;;;;5051709;28;20434;-71
2021/10/18 03:23:48;;;;;;;7.93;7.10;;;10.20;99.90;;;;;;5051141;28;20415;-71
2021/10/18 03:26:15;;;;;;;8.73;8.00;;;10.10;99.90;;;;;;5051619;28;20179;-71
2021/10/18 03:28:41;;;;;;;9.03;8.23;;;10.10;99.90;;;;;;5052002;28;20206;-71
2021/10/18 03:31:08;;;;;;;9.30;7.77;;;10.10;99.90;;;;;;5051161;28;20679;-71
2021/10/18 03:33:37;;;;;;;14.83;8.40;;;10.20;99.90;;;;;;5051859;28;20495;-71
2021/10/18 03:36:04;;;;;;;8.93;8.10;;;10.20;99.90;;;;;;5051095;28;20413;-71
2021/10/18 03:38:30;;;;;;;8.93;8.23;;;10.10;99.90;;;;;;5051959;28;20882;-71
2021/10/18 03:40:56;;;;;;;8.47;7.67;;;10.20;99.90;;;;;;5050903;28;20780;-71
2021/10/18 03:43:22;;;;;;;8.33;7.63;;;10.20;99.90;;;;;;5051456;28;20461;-71
2021/10/18 03:45:48;;;;;;;8.27;7.50;;;10.20;99.90;;;;;;5051265;28;20453;-71
2021/10/18 03:48:14;;;;;;;9.70;8.10;;;10.20;99.90;;;;;;5051538;28;20662;-71
2021/10/18 03:50:40;;;;;;;8.93;8.00;;;10.20;99.90;;;;;;5051743;28;20836;-71
2021/10/18 03:53:06;;;;;;;9.70;8.70;;;10.30;99.90;;;;;;5050541;28;20435;-71
2021/10/18 03:55:32;;;;;;;9.97;9.07;;;10.20;99.90;;;;;;5051942;28;20479;-70
2021/10/18 03:57:57;;;;;;;10.00;9.00;;;10.30;99.90;;;;;;5054783;28;20218;-71
2021/10/18 04:00:23;;;;;;;10.23;8.77;;;10.20;99.90;;;;;;5055367;28;20233;-71
2021/10/18 04:02:49;;;;;;;9.53;8.63;;;10.20;99.90;;;;;;5054599;28;20588;-71
2021/10/18 04:05:15;;;;;;;9.70;8.90;;;10.20;99.90;;;;;;5053607;28;20551;-71
2021/10/18 04:07:45;;;;;;;10.93;9.60;;;10.20;99.90;;;;;;5053713;28;20353;-71
2021/10/18 04:10:10;;;;;;;10.30;9.30;;;10.20;99.90;;;;;;5054698;28;20172;-71
2021/10/18 04:12:36;;;;;;;9.50;8.70;;;10.20;99.90;;;;;;5055335;28;20411;-71
2021/10/18 04:15:02;;;;;;;10.60;9.60;;;10.20;99.90;;;;;;5054113;28;20181;-71
2021/10/18 04:17:28;;;;;;;9.40;8.50;;;10.20;99.90;;;;;;5054769;28;20306;-71
2021/10/18 04:19:54;;;;;;;9.83;8.97;;;10.20;99.90;;;;;;5054189;28;20851;-71
2021/10/18 04:22:20;;;;;;;12.87;9.70;;;10.20;99.90;;;;;;5053986;28;20184;-70
2021/10/18 04:24:45;;;;;;;9.80;9.00;;;10.20;99.90;;;;;;5055090;28;20234;-71
2021/10/18 04:27:11;;;;;;;10.40;9.40;;;10.20;99.90;;;;;;5053839;28;20250;-71
2021/10/18 04:29:37;;;;;;;11.00;9.80;;;10.20;99.90;;;;;;5054708;28;20211;-70
2021/10/18 04:32:03;;;;;;;10.43;9.40;;;10.20;99.90;;;;;;5053214;28;20172;-71
2021/10/18 04:34:29;;;;;;;11.30;10.20;;;10.10;99.90;;;;;;5053588;28;20210;-71
2021/10/18 04:36:56;;;;;;;10.87;9.77;;;10.20;99.90;;;;;;5053981;28;20406;-71
2021/10/18 04:39:22;;;;;;;10.00;9.00;;;10.10;99.90;;;;;;5054881;28;20487;-71
2021/10/18 04:41:47;;;;;;;9.70;8.80;;;10.10;99.90;;;;;;5054758;28;20406;-71
2021/10/18 04:44:14;;;;;;;8.80;8.00;;;10.10;99.90;;;;;;5053542;28;20987;-71
2021/10/18 04:46:40;;;;;;;10.40;9.50;;;10.10;99.90;;;;;;5053012;28;20669;-71
2021/10/18 04:49:05;;;;;;;9.90;9.00;;;10.20;99.90;;;;;;5052778;28;20418;-71
2021/10/18 04:51:31;;;;;;;10.57;9.57;;;10.10;99.90;;;;;;5054316;28;20229;-71
2021/10/18 04:53:57;;;;;;;10.53;9.57;;;10.10;99.90;;;;;;5053741;28;20232;-71
2021/10/18 04:56:22;;;;;;;12.17;9.40;;;10.10;99.90;;;;;;5054558;28;20173;-71
2021/10/18 04:58:48;;;;;;;10.50;9.40;;;10.10;99.90;;;;;;5054443;28;20332;-71
2021/10/18 05:01:14;;;;;;;10.53;9.53;;;10.10;99.90;;;;;;5052901;28;20681;-71
2021/10/18 05:03:39;;;;;;;10.47;9.57;;;10.10;99.90;;;;;;5055057;28;20523;-71
2021/10/18 05:06:05;;;;;;;9.90;8.90;;;10.10;99.90;;;;;;5054080;28;20179;-71
2021/10/18 05:08:31;;;;;;;10.17;9.17;;;10.10;99.90;;;;;;5053789;28;20321;-71
2021/10/18 05:10:57;;;;;;;10.17;9.10;;;10.10;99.90;;;;;;5053423;28;20182;-71
2021/10/18 05:13:23;;;;;;;10.93;9.77;;;10.10;99.90;;;;;;5053039;28;20184;-70
2021/10/18 05:15:52;;;;;;;10.60;9.60;;;10.10;99.90;;;;;;5054046;28;20505;-70
2021/10/18 05:18:18;;;;;;;10.07;9.07;;;10.00;99.90;;;;;;5053461;28;20522;-71
2021/10/18 05:20:46;;;;;;;9.63;8.73;;;10.00;99.80;;;;;;5054276;28;20431;-70
2021/10/18 05:23:12;;;;;;;10.23;9.30;;;10.00;99.90;;;;;;5053304;28;20431;-71
2021/10/18 05:25:37;;;;;;;9.90;8.87;;;9.90;99.90;;;;;;5053344;28;20791;-70
2021/10/18 05:28:04;;;;;;;14.70;8.97;;;9.90;99.90;;;;;;5053162;28;20204;-70
2021/10/18 05:30:30;;;;;;;12.60;9.30;;;9.80;99.90;;;;;;5053326;28;20499;-70
2021/10/18 05:32:57;;;;;;;11.03;8.63;;;9.80;99.90;;;;;;5051573;28;20499;-71
2021/10/18 05:35:23;;;;;;;11.67;9.60;;;9.70;99.90;;;;;;5053823;28;20426;-70
2021/10/18 05:37:49;;;;;;;9.30;8.43;;;9.70;99.90;;;;;;5053402;28;20430;-70
2021/10/18 05:40:17;;;;;;;10.10;9.10;;;9.70;99.90;;;;;;5052679;28;20424;-70
2021/10/18 05:42:43;;;;;;;9.90;8.90;;;9.70;99.90;;;;;;5053417;28;20443;-69
2021/10/18 05:45:09;;;;;;;12.97;9.20;;;9.60;99.90;;;;;;5052264;28;20960;-70
2021/10/18 05:47:49;;;;;;;11.07;9.53;;;9.60;99.90;;;;;;5053238;28;21011;-69
2021/10/18 05:50:14;;;;;;;10.17;9.27;;;9.50;99.90;;;;;;5051365;28;20775;-72
2021/10/18 05:52:40;;;;;;;10.93;9.87;;;9.50;99.90;;;;;;5053383;28;20408;-71
2021/10/18 05:55:06;;;;;;;11.03;10.00;;;9.40;99.90;;;;;;5063318;28;20174;-69
2021/10/18 05:57:32;;;;;;;11.17;10.20;;;9.70;99.90;;;;;;5053091;28;20183;-70
2021/10/18 05:59:57;;;;;;;11.30;10.20;;;10.30;99.90;;;;;;5052409;28;20507;-69
2021/10/18 06:02:23;;;;;;;13.00;10.10;;;10.90;99.90;;;;;;5052930;28;20189;-70
2021/10/18 06:04:49;;;;;;;10.50;9.50;;;11.40;99.90;;;;;;5052821;28;20171;-70
2021/10/18 06:07:14;;;;;;;11.57;9.47;;;11.90;99.90;;;;;;5050766;28;20798;-70
2021/10/18 06:09:40;;;;;;;10.23;9.40;;;12.10;99.90;;;;;;5051752;28;20189;-71
2021/10/18 06:12:06;;;;;;;10.33;9.33;;;12.30;99.90;;;;;;5051795;28;20177;-69
2021/10/18 06:14:31;;;;;;;10.63;9.63;;;12.60;99.90;;;;;;5052423;28;20255;-70
2021/10/18 06:16:57;;;;;;;9.53;8.70;;;12.80;99.90;;;;;;5052384;28;20576;-69
2021/10/18 06:19:23;;;;;;;12.10;9.67;;;13.10;99.90;;;;;;5052520;28;20508;-70
2021/10/18 06:21:48;;;;;;;11.30;9.97;;;13.20;97.90;;;;;;5052420;28;20177;-71
2021/10/18 06:24:14;;;;;;;9.63;8.83;;;13.20;95.70;;;;;;5051447;28;20179;-71
2021/10/18 06:26:40;;;;;;;10.37;9.37;;;13.00;94.30;;;;;;5052253;28;20280;-71
2021/10/18 06:29:06;;;;;;;10.00;9.10;;;12.70;93.90;;;;;;5051352;28;20258;-71
2021/10/18 06:31:32;;;;;;;10.30;9.40;;;12.30;94.00;;;;;;5051481;28;20186;-72
2021/10/18 06:33:57;;;;;;;9.97;9.07;;;12.10;94.60;;;;;;5051950;28;20495;-72
2021/10/18 06:36:23;;;;;;;10.40;9.43;;;11.80;95.20;;;;;;5051779;28;20201;-71
2021/10/18 06:38:49;;;;;;;10.17;9.27;;;11.60;95.80;;;;;;5052398;28;20179;-71
2021/10/18 06:41:14;;;;;;;10.50;9.40;;;11.40;96.40;;;;;;5052628;28;20179;-71
2021/10/18 06:43:40;;;;;;;9.53;8.73;;;11.20;96.70;;;;;;5052794;28;20170;-70
2021/10/18 06:46:06;;;;;;;10.10;9.20;;;11.00;97.10;;;;;;5051754;28;20308;-70
2021/10/18 06:48:32;;;;;;;10.77;9.77;;;10.90;97.60;;;;;;5051024;28;20259;-71
2021/10/18 06:50:59;;;;;;;11.33;9.57;;;10.80;98.10;;;;;;5051434;28;20250;-71
2021/10/18 06:53:43;;;;;;;11.90;10.77;;;10.70;98.70;;;;;;5051381;28;20436;-71
2021/10/18 06:56:09;;;;;;;12.13;10.90;;;10.50;99.10;;;;;;5052179;28;20227;-71
2021/10/18 06:58:34;;;;;;;10.20;9.30;;;10.40;99.60;;;;;;5050878;28;20409;-71
2021/10/18 07:01:01;;;;;;;11.03;10.03;;;10.40;99.90;;;;;;5052042;28;20190;-71
2021/10/18 07:03:27;;;;;;;10.73;9.70;;;10.30;99.90;;;;;;5052545;28;20196;-71
2021/10/18 07:05:53;;;;;;;11.20;9.67;;;10.30;99.90;;;;;;5052452;28;20503;-71
2021/10/18 07:08:19;;;;;;;13.57;12.17;;;10.20;99.90;;;;;;5050715;28;20208;-71
2021/10/18 07:10:45;;;;;;;11.30;10.20;;;10.30;99.90;;;;;;5052549;28;20419;-72
2021/10/18 07:13:10;;;;;;;10.80;9.80;;;10.20;99.90;;;;;;5051457;28;20434;-71
2021/10/18 07:15:37;;;;;;;12.80;11.60;;;10.20;99.90;;;;;;5052727;28;20180;-71
2021/10/18 07:18:03;;;;;;;14.93;13.10;;;10.20;99.90;;;;;;5051932;28;20193;-71
2021/10/18 07:20:29;;;;;;;14.07;12.60;;;10.30;99.90;;;;;;5051073;28;20972;-71
2021/10/18 07:22:58;;;;;;;15.40;13.80;;;10.30;99.90;;;;;;5052344;28;20424;-71
2021/10/18 07:25:24;;;;;;;17.10;15.30;;;10.30;99.90;;;;;;5052249;28;20434;-71
2021/10/18 07:27:50;;;;;;;15.67;14.17;;;10.40;99.90;;;;;;5052265;28;20460;-70
2021/10/18 07:30:16;;;;;;;18.17;14.47;;;10.40;99.90;;;;;;5051481;28;20198;-71
2021/10/18 07:32:43;;;;;;;15.40;13.90;;;10.50;99.90;;;;;;5055578;28;20532;-71
2021/10/18 07:35:11;;;;;;;14.87;13.47;;;10.50;99.90;;;;;;5054388;28;20184;-71
2021/10/18 07:37:37;;;;;;;15.33;13.77;;;10.60;99.90;;;;;;5055856;28;21006;-71
2021/10/18 07:40:03;;;;;;;15.37;13.97;;;10.60;99.90;;;;;;5055120;28;20446;-71
2021/10/18 07:42:29;;;;;;;19.30;14.10;;;10.70;99.90;;;;;;5055742;28;20415;-72
2021/10/18 07:44:55;;;;;;;16.73;14.93;;;10.80;99.90;;;;;;5055736;28;20523;-71
2021/10/18 07:47:22;;;;;;;16.50;14.80;;;10.80;99.90;;;;;;5054223;28;20463;-72
2021/10/18 07:49:48;;;;;;;22.30;13.97;;;10.90;99.90;;;;;;5056146;28;20180;-71
2021/10/18 07:52:15;;;;;;;16.50;14.90;;;10.90;99.90;;;;;;5055507;28;20471;-72
2021/10/18 07:54:43;;;;;;;14.90;13.50;;;11.00;99.90;;;;;;5055980;28;20425;-72
2021/10/18 07:57:10;;;;;;;15.87;14.20;;;11.10;99.90;;;;;;5055413;28;20419;-72
2021/10/18 07:59:35;;;;;;;15.97;14.30;;;11.20;99.90;;;;;;5055954;28;20523;-72
2021/10/18 08:02:02;;;;;;;17.80;13.73;;;11.30;99.90;;;;;;5055332;28;20436;-71
2021/10/18 08:04:28;;;;;;;14.57;13.20;;;11.40;99.90;;;;;;5055877;28;20906;-71
2021/10/18 08:06:53;;;;;;;15.73;14.17;;;11.40;99.90;;;;;;5055775;28;20457;-71
2021/10/18 08:09:20;;;;;;;16.67;15.00;;;11.50;99.90;;;;;;5055485;28;20219;-71
2021/10/18 08:11:46;;;;;;;15.77;14.20;;;11.60;99.90;;;;;;5055714;28;20184;-73
2021/10/18 08:14:12;;;;;;;16.07;13.67;;;11.80;99.90;;;;;;5054897;28;20408;-72
2021/10/18 08:16:38;;;;;;;19.37;15.03;;;11.80;99.90;;;;;;5055831;28;20420;-73
2021/10/18 08:19:04;;;;;;;19.97;14.33;;;12.00;99.90;;;;;;5055047;28;20448;-72
2021/10/18 08:21:30;;;;;;;17.53;14.60;;;12.10;99.90;;;;;;5037430;28;20174;-72
2021/10/18 08:23:56;;;;;;;18.83;15.73;;;12.10;99.90;;;;;;5054309;28;20257;-72
2021/10/18 08:26:22;;;;;;;18.13;13.80;;;12.20;99.90;;;;;;5054837;28;20842;-72
2021/10/18 08:28:48;;;;;;;17.47;15.77;;;12.40;99.90;;;;;;5053975;28;20193;-72
2021/10/18 08:31:14;;;;;;;16.13;14.70;;;12.50;99.90;;;;;;5054796;28;20417;-72
2021/10/18 08:33:40;;;;;;;14.67;12.50;;;12.60;99.90;;;;;;5055299;28;20571;-71
2021/10/18 08:36:06;;;;;;;14.80;12.37;;;12.80;99.90;;;;;;5054705;28;20461;-71
2021/10/18 08:38:48;;;;;;;15.83;12.00;;;12.80;99.90;;;;;;5055293;28;20422;-71
2021/10/18 08:41:31;;;;;;;14.30;12.53;;;13.00;99.90;;;;;;5054651;28;20179;-71
2021/10/18 08:46:24;;;;;;;12.97;11.77;;;13.30;99.90;;;;;;5054380;28;20917;-72
2021/10/18 08:48:53;;;;;;;13.70;12.20;;;13.50;99.90;;;;;;5053886;28;20528;-72
2021/10/18 08:51:19;;;;;;;15.43;11.83;;;13.70;99.90;;;;;;5054420;28;20411;-72
2021/10/18 08:53:46;;;;;;;13.50;11.40;;;13.80;99.90;;;;;;5053740;28;20411;-71
2021/10/18 08:56:12;;;;;;;15.10;13.47;;;13.90;99.90;;;;;;5054019;28;20914;-73
2021/10/18 08:58:38;;;;;;;14.07;12.67;;;14.10;99.90;;;;;;5054820;28;20412;-72
2021/10/18 09:01:04;;;;;;;14.13;12.87;;;14.20;99.90;;;;;;5053060;28;20183;-72
2021/10/18 09:03:32;;;;;;;12.77;11.03;;;14.40;99.90;;;;;;5053682;28;20758;-73
2021/10/18 09:06:15;;;;;;;12.73;11.43;;;14.50;99.90;;;;;;5054777;28;20422;-73
2021/10/18 09:08:50;;;;;;;12.53;11.00;;;14.70;99.90;;;;;;5054306;28;20820;-73
2021/10/18 09:11:23;;;;;;;11.50;10.30;;;14.80;99.90;;;;;;5054015;28;20405;-72
2021/10/18 09:13:51;;;;;;;11.00;9.80;;;14.90;96.90;;;;;;5054748;28;20893;-72
2021/10/18 09:16:35;;;;;;;11.53;10.33;;;15.00;98.30;;;;;;5053937;28;20512;-72
2021/10/18 09:19:16;;;;;;;11.70;10.70;;;15.20;99.30;;;;;;5054482;28;20498;-72
2021/10/18 09:21:52;;;;;;;8.80;8.10;;;15.30;98.70;;;;;;5053123;28;20430;-72
2021/10/18 09:24:39;;;;;;;10.43;8.70;;;15.40;95.40;;;;;;5053065;28;20391;-72
2021/10/18 09:27:16;;;;;;;10.43;9.47;;;15.50;95.60;;;;;;5052467;28;20454;-71
2021/10/18 09:29:46;;;;;;;9.50;8.70;;;15.70;96.30;;;;;;5053254;28;20399;-72
2021/10/18 09:32:28;;;;;;;10.23;8.77;;;15.80;96.10;;;;;;5053976;28;20428;-73
2021/10/18 09:35:24;;;;;;;9.17;8.47;;;15.90;95.10;;;;;;5054225;28;20396;-72
2021/10/18 09:37:49;;;;;;;9.20;8.30;;;16.00;94.50;;;;;;5049211;28;20435;-73
2021/10/18 09:40:32;;;;;;;8.80;8.10;;;16.20;94.10;;;;;;5053114;28;20413;-72
2021/10/18 09:43:19;;;;;;;8.00;7.40;;;16.20;92.60;;;;;;5054031;28;20184;-72
2021/10/18 09:46:19;;;;;;;8.57;7.87;;;16.20;93.40;;;;;;5054206;28;20662;-72
2021/10/18 10:51:09;;;;;;;5.70;5.30;;;18.80;80.20;;;;;;5052168;28;20400;-72
2021/10/18 10:56:20;;;;;;;6.30;5.90;;;19.00;79.00;;;;;;5052124;28;20448;-72
2021/10/18 10:58:51;;;;;;;6.63;6.23;;;19.00;79.20;;;;;;5051158;28;20416;-72
2021/10/18 11:01:41;;;;;;;5.97;5.57;;;18.90;81.60;;;;;;5051605;28;20883;-72
2021/10/18 11:04:31;;;;;;;8.07;7.37;;;19.00;81.10;;;;;;5052232;28;20452;-73
2021/10/18 11:07:09;;;;;;;7.73;7.10;;;18.90;77.30;;;;;;5051377;28;20474;-73
2021/10/18 11:09:52;;;;;;;7.20;6.60;;;18.70;76.60;;;;;;5051486;28;20416;-73
2021/10/18 11:12:22;;;;;;;6.70;6.23;;;18.40;79.10;;;;;;5050549;28;20435;-72
2021/10/18 11:15:02;;;;;;;6.43;5.93;;;18.60;81.90;;;;;;5052327;28;20494;-72
2021/10/18 11:17:37;;;;;;;6.67;6.07;;;18.60;81.20;;;;;;5050196;28;20438;-72
2021/10/18 11:20:10;;;;;;;6.80;6.10;;;18.70;81.50;;;;;;5051940;28;20424;-72
2021/10/18 11:22:39;;;;;;;6.27;5.87;;;18.80;80.30;;;;;;5051260;28;20443;-72
2021/10/18 11:25:20;;;;;;;6.93;6.17;;;18.70;79.00;;;;;;5052056;28;20507;-72
2021/10/18 11:27:52;;;;;;;6.13;5.63;;;18.60;78.70;;;;;;5051672;28;20547;-72
2021/10/18 11:30:20;;;;;;;6.10;5.70;;;18.60;79.20;;;;;;5050876;28;20428;-72
2021/10/18 11:33:10;;;;;;;6.00;5.60;;;18.70;80.70;;;;;;5051337;28;20424;-72
2021/10/18 11:35:36;;;;;;;5.73;5.43;;;18.70;81.10;;;;;;5051728;28;20404;-72
2021/10/18 11:38:13;;;;;;;6.67;5.43;;;18.80;78.40;;;;;;5052368;28;20427;-72
2021/10/18 11:40:50;;;;;;;6.63;5.87;;;18.80;79.00;;;;;;5052489;28;20768;-72
2021/10/18 11:43:22;;;;;;;5.97;5.37;;;18.30;77.40;;;;;;5051874;28;20400;-71
2021/10/18 11:45:53;;;;;;;7.00;5.73;;;18.30;81.20;;;;;;5051874;28;20946;-72
2021/10/18 11:48:29;;;;;;;6.10;5.50;;;18.30;80.50;;;;;;5051230;28;20444;-72
2021/10/18 11:51:00;;;;;;;5.47;4.97;;;18.30;80.40;;;;;;5052195;28;20396;-72
2021/10/18 11:53:27;;;;;;;7.47;6.90;;;18.20;80.60;;;;;;5051080;28;20766;-72
2021/10/18 11:56:01;;;;;;;4.60;4.30;;;18.40;82.20;;;;;;5051831;28;20419;-72
2021/10/18 11:58:32;;;;;;;8.20;7.47;;;18.40;80.40;;;;;;5051477;28;20454;-72
2021/10/18 12:00:59;;;;;;;7.73;7.13;;;18.40;81.20;;;;;;5052120;28;20424;-72
2021/10/18 12:03:25;;;;;;;5.93;4.77;;;18.20;82.20;;;;;;5051265;28;20419;-72
2021/10/18 12:05:53;;;;;;;5.53;4.57;;;18.30;83.20;;;;;;5051710;28;20424;-72
2021/10/18 12:08:21;;;;;;;5.50;5.20;;;18.00;83.50;;;;;;5051149;28;20460;-72
2021/10/18 12:10:49;;;;;;;6.13;5.23;;;18.00;84.40;;;;;;5050732;28;20439;-72
2021/10/18 12:13:26;;;;;;;6.10;5.37;;;18.10;83.40;;;;;;5049935;28;20428;-71
2021/10/18 12:15:57;;;;;;;6.40;4.67;;;18.10;83.10;;;;;;5050529;28;20496;-71
2021/10/18 12:18:37;;;;;;;5.50;5.00;;;18.00;82.30;;;;;;5052409;28;20432;-71
2021/10/18 12:21:07;;;;;;;6.33;5.87;;;18.00;84.40;;;;;;5054867;28;20400;-72
2021/10/18 12:23:45;;;;;;;6.73;5.63;;;18.00;84.90;;;;;;5054145;28;20428;-72
2021/10/18 12:26:36;;;;;;;5.40;4.90;;;18.00;85.10;;;;;;5054600;28;20764;-71
2021/10/18 12:29:09;;;;;;;5.40;4.90;;;18.00;84.90;;;;;;5047460;28;20456;-71
2021/10/18 12:31:42;;;;;;;6.50;5.40;;;17.90;84.00;;;;;;5054169;28;20666;-71
2021/10/18 12:34:22;;;;;;;6.13;5.73;;;17.90;84.00;;;;;;5054446;28;20419;-70
2021/10/18 12:37:00;;;;;;;5.80;5.40;;;17.70;85.50;;;;;;5044551;28;20427;-70
2021/10/18 12:39:40;;;;;;;5.87;5.37;;;17.50;85.80;;;;;;5053385;28;20416;-70
2021/10/18 12:42:08;;;;;;;6.80;6.03;;;17.40;85.00;;;;;;5054225;28;20943;-70
2021/10/18 12:44:37;;;;;;;5.90;5.40;;;17.50;84.40;;;;;;5052144;28;20470;-72
2021/10/18 12:47:11;;;;;;;6.60;6.10;;;17.50;85.30;;;;;;5050924;28;20500;-71
2021/10/18 12:49:38;;;;;;;6.43;5.50;;;17.40;84.80;;;;;;5054517;28;20766;-71
2021/10/18 12:52:05;;;;;;;6.30;5.50;;;17.40;86.60;;;;;;5054100;28;20428;-71
2021/10/18 12:54:46;;;;;;;9.33;5.60;;;17.50;86.90;;;;;;5054091;28;20420;-71
2021/10/18 12:57:13;;;;;;;6.67;6.07;;;17.60;88.70;;;;;;5054728;28;20432;-71
2021/10/18 13:00:11;;;;;;;6.60;6.10;;;17.60;87.10;;;;;;5053501;28;20409;-73
2021/10/18 13:02:45;;;;;;;6.00;5.40;;;17.40;87.00;;;;;;5054106;28;20832;-71
2021/10/18 13:05:14;;;;;;;5.10;4.60;;;17.30;87.50;;;;;;5054340;28;20411;-71
2021/10/18 13:07:51;;;;;;;4.93;4.53;;;17.10;86.90;;;;;;5054030;28;20468;-71
2021/10/18 13:10:18;;;;;;;4.60;4.20;;;17.10;89.60;;;;;;5053525;28;20495;-71
2021/10/18 13:12:45;;;;;;;7.50;7.10;;;17.20;88.00;;;;;;5052385;28;20927;-71
2021/10/18 13:15:13;;;;;;;6.83;6.23;;;17.20;84.30;;;;;;5053954;28;20482;-71
2021/10/18 13:17:39;;;;;;;5.00;4.50;;;17.20;84.80;;;;;;5052493;28;20436;-71
2021/10/18 13:20:06;;;;;;;4.87;4.47;;;17.20;84.00;;;;;;5054339;28;20416;-70
2021/10/18 13:22:32;;;;;;;4.63;4.33;;;17.30;83.90;;;;;;5052853;28;20188;-72
2021/10/18 13:24:57;;;;;;;4.97;4.67;;;17.30;84.00;;;;;;5060595;28;20420;-71
2021/10/18 13:27:23;;;;;;;5.20;4.90;;;17.50;84.00;;;;;;5052686;28;20216;-70
2021/10/18 13:29:49;;;;;;;5.50;5.07;;;17.50;85.50;;;;;;5053218;28;20184;-71
2021/10/18 13:32:16;;;;;;;9.07;4.90;;;17.40;83.90;;;;;;5052953;28;20423;-71
2021/10/18 13:34:43;;;;;;;7.50;6.90;;;17.50;84.00;;;;;;5052658;28;20213;-71
2021/10/18 13:37:10;;;;;;;58.17;41.53;;;17.40;83.10;;;;;;5053703;28;20461;-71
2021/10/18 13:39:37;;;;;;;16.30;13.77;;;17.50;84.20;;;;;;5052913;28;20408;-71
2021/10/18 13:42:04;;;;;;;26.43;20.63;;;17.50;84.00;;;;;;5053060;28;20431;-71
2021/10/18 13:44:31;;;;;;;106.33;61.73;;;17.40;84.10;;;;;;5052609;28;20470;-71
2021/10/18 13:46:57;;;;;;;123.77;87.20;;;17.50;84.80;;;;;;5052262;28;20487;-70
2021/10/18 13:49:23;;;;;;;34.10;22.33;;;17.50;84.50;;;;;;5052261;28;20432;-70
2021/10/18 13:51:48;;;;;;;6.23;5.60;;;17.50;82.70;;;;;;5052493;28;20173;-71
2021/10/18 13:54:14;;;;;;;5.07;4.77;;;17.60;82.80;;;;;;5053357;28;20178;-71